Hovedside
METAR-TAF:

METAR-TAF

Lufthavner :

Seneca, Oregon, USA

breddegrad: 44-08-18N, lengdegrad: 118-58-54W, høyde over havet: 1422 m

Gjeldene værobservasjon

Denne rapporten ble laget for 16 minutter siden, klokken 22:35 UTC
Vind 7 kt fra Vest
Temperatur 31°C
Luftfuktighet 18%
Trykk 1021 hPa
Sikt: 11.3 km
Skyfri himmel

METAR: KGCD 172235Z AUTO 27007KT 7SM CLR 31/04 A3015 RMK AO2 T03070036

Tid: 15:51 (22:51 UTC)


TAF: fraværende

Værobservasjoner og værvarsel for over 4000 flyplasser (METAR- og TAF-rapporter).

Tilgjengelige stasjoner er representert av de røde og gule prikkene på kartet.

Hold musepekeren over prikken for å se navnet på stasjonen.

Klikk så for å se værobservasjoner og -varsler.

For å forandre kartet kan du klikke på den grønne knappen med svart kryss for å zoome inn, på den grønne knappen med strek for å zoome ut, eller på de grønne pilene for å se tilstøtende kart.


METAR-TAF: